Time;durP1;ratioP1;P1;durP2;ratioP2;P2;SDS_P1;SDS_P2;PMS_P1;PMS_P2;Temp;Humidity;BMP_temperature;BMP_pressure;BME280_temperature;BME280_humidity;BME280_pressure;Samples;Min_cycle;Max_cycle;Signal;HPM_P1;HPM_P2
2023/03/06 00:01:52;;;;;;;;;;;;;;;4.00;54.91;94042.28;4215179;28;19927;-58
2023/03/06 00:03:54;;;;;;;;;;;;;;;3.99;55.52;94040.66;4214091;28;20499;-53
2023/03/06 00:05:56;;;;;;;;;;;;;;;3.94;55.89;94035.06;4214480;28;19936;-55
2023/03/06 00:07:58;;;;;;;;;;;;;;;3.89;56.06;94038.03;4214045;28;20374;-57
2023/03/06 00:10:00;;;;;;;;;;;;;;;3.91;56.14;94033.53;4215100;28;19920;-56
2023/03/06 00:12:01;;;;;;;;;;;;;;;3.98;55.68;94036.41;4210519;28;20374;-58
2023/03/06 00:14:03;;;;;;;;;;;;;;;3.85;55.94;94039.25;4209787;28;19920;-56
2023/03/06 00:16:05;;;;;;;;;;;;;;;3.85;56.34;94031.47;4203195;28;19924;-58
2023/03/06 00:18:07;;;;;;;;;;;;;;;3.86;56.10;94033.13;4212281;28;19920;-55
2023/03/06 00:20:10;;;;;;;;;;;;;;;3.85;55.75;94027.13;4211789;28;19920;-55
2023/03/06 00:22:12;;;;;;;;;;;;;;;3.76;56.11;94035.69;4212684;28;19920;-59
2023/03/06 00:24:14;;;;;;;;;;;;;;;3.82;56.58;94029.97;4212247;28;19920;-57
2023/03/06 00:26:15;;;;;;;;;;;;;;;3.83;56.38;94031.63;4212795;28;19924;-59
2023/03/06 00:28:17;;;;;;;;;;;;;;;3.89;56.23;94032.84;4211127;28;19924;-57
2023/03/06 00:30:19;;;;;;;;;;;;;;;3.95;55.60;94031.50;4213823;28;20316;-56
2023/03/06 00:32:21;;;;;;;;;;;;;;;3.94;54.94;94033.28;4211305;28;19955;-56
2023/03/06 00:34:23;;;;;;;;;;;;;;;3.96;55.56;94028.78;4212564;28;19974;-57
2023/03/06 00:36:24;;;;;;;;;;;;;;;3.88;54.94;94032.03;4209948;28;19924;-58
2023/03/06 00:38:27;;;;;;;;;;;;;;;3.93;55.27;94034.22;4189517;28;19993;-59
2023/03/06 00:40:28;;;;;;;;;;;;;;;3.87;55.09;94032.16;4207104;28;19982;-56
2023/03/06 00:42:30;;;;;;;;;;;;;;;3.87;55.11;94039.94;4197315;28;19921;-57
2023/03/06 00:44:31;;;;;;;;;;;;;;;3.91;54.76;94028.34;4198302;28;19921;-56
2023/03/06 00:46:33;;;;;;;;;;;;;;;3.99;54.52;94028.50;4197117;28;19920;-53
2023/03/06 00:48:34;;;;;;;;;;;;;;;3.91;55.21;94028.34;4196267;28;19924;-56
2023/03/06 00:50:36;;;;;;;;;;;;;;;3.92;54.90;94036.97;4197434;28;20287;-55
2023/03/06 00:52:38;;;;;;;;;;;;;;;3.98;54.62;94032.06;4193987;28;19920;-60
2023/03/06 00:54:39;;;;;;;;;;;;;;;3.93;55.13;94039.41;4194884;28;19929;-59
2023/03/06 00:56:41;;;;;;;;;;;;;;;3.96;53.73;94031.38;4181856;28;19921;-57
2023/03/06 00:58:42;;;;;;;;;;;;;;;4.02;54.05;94028.25;4190702;28;20349;-59
2023/03/06 01:00:44;;;;;;;;;;;;;;;4.02;53.73;94025.66;4193616;28;19920;-56
2023/03/06 01:02:45;;;;;;;;;;;;;;;4.00;53.71;94035.34;4183598;28;19975;-60
2023/03/06 01:04:47;;;;;;;;;;;;;;;4.06;53.65;94015.81;4199413;28;20019;-56
2023/03/06 01:06:48;;;;;;;;;;;;;;;4.01;53.03;94021.41;4213497;28;19920;-56
2023/03/06 01:08:50;;;;;;;;;;;;;;;4.06;53.80;94014.03;4213514;28;19927;-58
2023/03/06 01:10:51;;;;;;;;;;;;;;;4.10;53.00;94006.81;4214053;28;20334;-60
2023/03/06 01:12:53;;;;;;;;;;;;;;;4.13;53.50;94005.72;4202403;28;20055;-58
2023/03/06 01:14:55;;;;;;;;;;;;;;;4.08;53.33;94012.13;4193431;28;19925;-57
2023/03/06 01:16:56;;;;;;;;;;;;;;;4.06;53.49;94008.03;4195884;28;19924;-58
2023/03/06 01:18:58;;;;;;;;;;;;;;;4.08;53.88;94011.31;4195185;28;20366;-56
2023/03/06 01:20:59;;;;;;;;;;;;;;;4.04;53.32;94012.53;4180878;28;19979;-54
2023/03/06 01:23:01;;;;;;;;;;;;;;;4.01;53.76;94010.22;4189808;28;19920;-55
2023/03/06 01:25:02;;;;;;;;;;;;;;;4.00;53.92;94019.78;4195976;28;19921;-59
2023/03/06 01:27:04;;;;;;;;;;;;;;;3.99;53.26;94015.53;4185247;28;19990;-57
2023/03/06 01:29:05;;;;;;;;;;;;;;;4.06;53.88;94024.41;4195913;28;19924;-56
2023/03/06 01:31:07;;;;;;;;;;;;;;;4.13;53.89;94008.31;4194178;28;19928;-56
2023/03/06 01:33:09;;;;;;;;;;;;;;;4.20;53.09;94010.22;4183619;28;19987;-57
2023/03/06 01:35:11;;;;;;;;;;;;;;;4.19;53.72;94010.34;4180071;28;20011;-59
2023/03/06 01:37:12;;;;;;;;;;;;;;;4.10;53.60;94018.00;4184881;28;19944;-58
2023/03/06 01:39:14;;;;;;;;;;;;;;;4.17;53.63;94007.09;4189954;28;19941;-57
2023/03/06 01:41:16;;;;;;;;;;;;;;;4.26;53.56;94006.28;4202072;28;19927;-56
2023/03/06 01:43:26;;;;;;;;;;;;;;;4.30;53.07;94015.41;4200783;28;19977;-58
2023/03/06 01:45:34;;;;;;;;;;;;;;;4.23;53.65;94009.94;4201210;28;20397;-57
2023/03/06 01:47:35;;;;;;;;;;;;;;;4.30;53.26;94007.63;4191140;28;19928;-55
2023/03/06 01:49:37;;;;;;;;;;;;;;;4.19;52.72;94012.94;4202438;28;19927;-57
2023/03/06 01:51:43;;;;;;;;;;;;;;;4.13;53.61;94008.31;4197557;28;19966;-54
2023/03/06 01:53:45;;;;;;;;;;;;;;;4.24;53.49;94008.19;4185753;28;19927;-56
2023/03/06 01:55:46;;;;;;;;;;;;;;;4.27;53.00;94000.13;4192240;28;19924;-57
2023/03/06 01:57:51;;;;;;;;;;;;;;;4.36;52.81;94004.47;4204740;28;20018;-55
2023/03/06 01:59:55;;;;;;;;;;;;;;;4.32;52.75;94008.28;4196666;28;20397;-58
2023/03/06 02:01:56;;;;;;;;;;;;;;;4.24;53.22;94003.81;4204127;28;19924;-58
2023/03/06 02:03:58;;;;;;;;;;;;;;;4.10;53.79;94009.41;4195034;28;19951;-56
2023/03/06 02:06:00;;;;;;;;;;;;;;;3.89;54.49;94000.00;4183410;28;20378;-55
2023/03/06 02:08:02;;;;;;;;;;;;;;;3.93;54.21;94007.50;4195519;28;19920;-54
2023/03/06 02:10:04;;;;;;;;;;;;;;;3.93;53.50;94008.31;4194619;28;19920;-58
2023/03/06 02:12:07;;;;;;;;;;;;;;;3.93;53.51;93997.94;4185441;28;19924;-60
2023/03/06 02:14:12;;;;;;;;;;;;;;;3.96;53.56;94004.63;4201727;28;19920;-58
2023/03/06 02:16:13;;;;;;;;;;;;;;;3.86;54.29;94000.25;4209190;28;19920;-55
2023/03/06 02:18:15;;;;;;;;;;;;;;;3.89;53.58;93999.16;4210664;28;19998;-56
2023/03/06 02:20:22;;;;;;;;;;;;;;;3.81;54.40;94007.63;4212689;28;19927;-59
2023/03/06 02:22:25;;;;;;;;;;;;;;;3.74;54.66;94001.34;4203456;28;19920;-56
2023/03/06 02:24:38;;;;;;;;;;;;;;;3.67;55.04;94006.22;4206334;28;19946;-58
2023/03/06 02:26:40;;;;;;;;;;;;;;;3.74;54.79;94013.47;4210753;28;19989;-58
2023/03/06 02:28:41;;;;;;;;;;;;;;;3.75;54.68;94012.53;4210936;28;19986;-58
2023/03/06 02:30:44;;;;;;;;;;;;;;;3.66;54.78;94011.56;4211455;28;20017;-58
2023/03/06 02:32:46;;;;;;;;;;;;;;;3.66;55.00;94008.97;4196192;28;19924;-58
2023/03/06 02:34:47;;;;;;;;;;;;;;;3.73;55.07;94007.47;4199213;28;20378;-59
2023/03/06 02:36:50;;;;;;;;;;;;;;;3.72;55.10;94012.78;4197875;28;19927;-56
2023/03/06 02:38:51;;;;;;;;;;;;;;;3.72;54.79;94018.78;4188014;28;19928;-52
2023/03/06 02:40:53;;;;;;;;;;;;;;;3.74;54.65;94014.28;4182663;28;19955;-56
2023/03/06 02:42:55;;;;;;;;;;;;;;;3.85;54.85;94026.28;4178137;28;19925;-58
2023/03/06 02:44:58;;;;;;;;;;;;;;;3.90;54.49;94016.38;4187867;28;20015;-56
2023/03/06 02:46:59;;;;;;;;;;;;;;;3.78;54.49;94012.25;4194518;28;19920;-55
2023/03/06 02:49:01;;;;;;;;;;;;;;;3.72;54.82;94021.38;4204469;28;19931;-56
2023/03/06 02:51:02;;;;;;;;;;;;;;;3.40;56.00;94021.56;4205781;28;20015;-57
2023/03/06 02:53:04;;;;;;;;;;;;;;;3.25;56.29;94023.75;4189866;28;19920;-56
2023/03/06 02:55:06;;;;;;;;;;;;;;;2.91;57.71;94028.38;4196976;28;20390;-60
2023/03/06 02:57:07;;;;;;;;;;;;;;;2.88;58.13;94032.00;4207626;28;19920;-55
2023/03/06 02:59:09;;;;;;;;;;;;;;;2.80;58.38;94017.16;4197114;28;20003;-58
2023/03/06 03:01:11;;;;;;;;;;;;;;;2.62;58.57;94022.09;4210077;28;20301;-55
2023/03/06 03:03:12;;;;;;;;;;;;;;;2.63;59.16;94018.56;4210427;28;19924;-55
2023/03/06 03:05:14;;;;;;;;;;;;;;;2.67;59.04;94026.88;4212214;28;20454;-57
2023/03/06 03:07:15;;;;;;;;;;;;;;;2.53;59.37;94022.03;4209176;28;19974;-60
2023/03/06 03:09:17;;;;;;;;;;;;;;;2.53;59.79;94022.84;4210943;28;20366;-59
2023/03/06 03:11:18;;;;;;;;;;;;;;;2.60;59.86;94033.50;4211094;28;19920;-56
2023/03/06 03:13:20;;;;;;;;;;;;;;;2.55;59.76;94027.91;4208904;28;19920;-55
2023/03/06 03:15:21;;;;;;;;;;;;;;;2.52;59.65;94026.38;4210639;28;19920;-56
2023/03/06 03:17:23;;;;;;;;;;;;;;;2.52;59.79;94028.13;4203167;28;19920;-56
2023/03/06 03:19:24;;;;;;;;;;;;;;;2.50;59.59;94020.53;4215284;28;20370;-53
2023/03/06 03:21:26;;;;;;;;;;;;;;;2.32;60.10;94029.78;4213015;28;20416;-53
2023/03/06 03:23:27;;;;;;;;;;;;;;;2.39;60.18;94024.00;4197794;28;19924;-56
2023/03/06 03:25:29;;;;;;;;;;;;;;;2.35;60.05;94025.19;4192017;28;19921;-59
2023/03/06 03:27:31;;;;;;;;;;;;;;;2.41;60.00;94013.50;4192810;28;20409;-56
2023/03/06 03:29:32;;;;;;;;;;;;;;;2.43;60.01;94016.78;4199519;28;20012;-56
2023/03/06 03:31:33;;;;;;;;;;;;;;;2.56;59.50;94019.19;4187593;28;20015;-57
2023/03/06 03:33:35;;;;;;;;;;;;;;;2.51;59.52;94016.16;4197378;28;19990;-55
2023/03/06 03:35:36;;;;;;;;;;;;;;;2.57;59.43;94020.84;4189361;28;20367;-55
2023/03/06 03:37:38;;;;;;;;;;;;;;;2.62;59.30;94026.44;4182691;28;19947;-55
2023/03/06 03:39:40;;;;;;;;;;;;;;;2.64;59.03;94020.19;4187001;28;20343;-57
2023/03/06 03:41:41;;;;;;;;;;;;;;;2.65;59.01;94024.41;4191894;28;20019;-56
2023/03/06 03:43:43;;;;;;;;;;;;;;;2.74;58.93;94024.59;4193486;28;19932;-55
2023/03/06 03:45:44;;;;;;;;;;;;;;;2.83;58.41;94026.41;4197822;28;19920;-55
2023/03/06 03:47:45;;;;;;;;;;;;;;;2.94;58.73;94031.50;4182479;28;19992;-56
2023/03/06 03:49:47;;;;;;;;;;;;;;;3.06;58.33;94027.06;4201739;28;20294;-56
2023/03/06 03:51:49;;;;;;;;;;;;;;;3.06;58.23;94033.06;4203636;28;19924;-56
2023/03/06 03:53:50;;;;;;;;;;;;;;;2.96;58.69;94036.56;4208671;28;19939;-57
2023/03/06 03:55:52;;;;;;;;;;;;;;;3.06;58.69;94035.66;4200201;28;19924;-55
2023/03/06 03:57:53;;;;;;;;;;;;;;;3.13;58.21;94048.06;4209280;28;20014;-56
2023/03/06 03:59:55;;;;;;;;;;;;;;;3.20;57.95;94044.81;4197837;28;19924;-57
2023/03/06 04:01:56;;;;;;;;;;;;;;;3.33;58.15;94043.78;4197945;28;19929;-57
2023/03/06 04:03:58;;;;;;;;;;;;;;;3.49;57.51;94044.09;4196896;28;20559;-53
2023/03/06 04:05:59;;;;;;;;;;;;;;;3.63;57.02;94054.06;4198356;28;20466;-53
2023/03/06 04:08:02;;;;;;;;;;;;;;;3.77;57.38;94039.13;4196789;28;19920;-55
2023/03/06 04:10:04;;;;;;;;;;;;;;;3.88;57.16;94041.59;4185198;28;19924;-58
2023/03/06 04:12:06;;;;;;;;;;;;;;;3.90;56.16;94045.69;4196041;28;20004;-58
2023/03/06 04:14:08;;;;;;;;;;;;;;;3.94;56.95;94051.41;4197436;28;20095;-58
2023/03/06 04:16:10;;;;;;;;;;;;;;;3.95;56.62;94052.25;4197898;28;19920;-56
2023/03/06 04:18:11;;;;;;;;;;;;;;;3.93;57.18;94052.38;4183061;28;19922;-53
2023/03/06 04:20:13;;;;;;;;;;;;;;;3.93;57.14;94048.97;4200659;28;19920;-55
2023/03/06 04:22:14;;;;;;;;;;;;;;;3.93;56.83;94059.31;4205990;28;20382;-54
2023/03/06 04:24:16;;;;;;;;;;;;;;;3.96;57.16;94056.44;4207057;28;19962;-55
2023/03/06 04:26:17;;;;;;;;;;;;;;;3.97;57.16;94052.91;4186073;28;19925;-59
2023/03/06 04:28:19;;;;;;;;;;;;;;;3.77;57.43;94059.84;4188491;28;19920;-55
2023/03/06 04:30:20;;;;;;;;;;;;;;;3.71;57.47;94063.78;4213359;28;20010;-57
2023/03/06 04:32:22;;;;;;;;;;;;;;;3.71;57.71;94065.56;4212690;28;19920;-58
2023/03/06 04:34:24;;;;;;;;;;;;;;;3.72;57.70;94062.81;4199139;28;19921;-55
2023/03/06 04:36:27;;;;;;;;;;;;;;;3.74;57.70;94060.09;4213271;28;19935;-55
2023/03/06 04:38:28;;;;;;;;;;;;;;;3.84;58.09;94055.75;4212941;28;19965;-58
2023/03/06 04:40:31;;;;;;;;;;;;;;;3.90;57.37;94063.81;4214094;28;19920;-58
2023/03/06 04:42:33;;;;;;;;;;;;;;;4.03;57.16;94065.34;4212970;28;19924;-59
2023/03/06 04:44:34;;;;;;;;;;;;;;;4.10;57.76;94056.88;4208843;28;19947;-56
2023/03/06 04:46:36;;;;;;;;;;;;;;;4.15;57.00;94068.63;4206706;28;20351;-57
2023/03/06 04:48:37;;;;;;;;;;;;;;;4.14;56.89;94069.59;4211749;28;19946;-56
2023/03/06 04:50:39;;;;;;;;;;;;;;;4.19;57.52;94060.44;4198236;28;19974;-56
2023/03/06 04:52:40;;;;;;;;;;;;;;;4.18;57.28;94070.94;4198081;28;19920;-56
2023/03/06 04:54:42;;;;;;;;;;;;;;;4.16;57.44;94067.69;4192314;28;19955;-57
2023/03/06 04:56:43;;;;;;;;;;;;;;;4.21;57.04;94068.88;4181478;28;19925;-58
2023/03/06 04:58:45;;;;;;;;;;;;;;;4.19;56.95;94068.19;4205422;28;20382;-57
2023/03/06 05:00:47;;;;;;;;;;;;;;;4.17;57.57;94075.28;4197139;28;20376;-58
2023/03/06 05:02:48;;;;;;;;;;;;;;;4.12;56.80;94074.09;4196866;28;19966;-56
2023/03/06 05:04:50;;;;;;;;;;;;;;;4.17;56.95;94074.47;4197750;28;19974;-56
2023/03/06 05:06:51;;;;;;;;;;;;;;;4.19;56.97;94070.78;4184451;28;19947;-56
2023/03/06 05:08:53;;;;;;;;;;;;;;;4.21;57.40;94073.25;4180913;28;19929;-57
2023/03/06 05:10:55;;;;;;;;;;;;;;;4.25;57.14;94069.44;4187480;28;19920;-59
2023/03/06 05:12:57;;;;;;;;;;;;;;;4.22;56.92;94069.72;4185804;28;19971;-59
2023/03/06 05:14:58;;;;;;;;;;;;;;;4.19;57.45;94068.19;4181158;28;19956;-61
2023/03/06 05:17:00;;;;;;;;;;;;;;;4.23;56.89;94073.94;4184292;28;19966;-57
2023/03/06 05:19:02;;;;;;;;;;;;;;;4.21;57.28;94081.03;4196621;28;19996;-57
2023/03/06 05:21:04;;;;;;;;;;;;;;;4.20;56.69;94087.19;4186974;28;19970;-55
2023/03/06 05:23:05;;;;;;;;;;;;;;;4.25;56.97;94079.81;4193922;28;20270;-54
2023/03/06 05:25:07;;;;;;;;;;;;;;;4.27;56.91;94080.50;4197406;28;19924;-53
2023/03/06 05:27:08;;;;;;;;;;;;;;;4.30;56.79;94082.81;4211564;28;20042;-55
2023/03/06 05:29:10;;;;;;;;;;;;;;;4.30;56.83;94085.41;4202906;28;19982;-48
2023/03/06 05:31:11;;;;;;;;;;;;;;;4.25;57.02;94079.81;4196742;28;19981;-56
2023/03/06 05:33:13;;;;;;;;;;;;;;;4.28;57.71;94075.19;4199173;28;20431;-54
2023/03/06 05:35:16;;;;;;;;;;;;;;;4.22;57.15;94075.72;4212150;28;19920;-54
2023/03/06 05:37:17;;;;;;;;;;;;;;;4.25;56.90;94080.63;4212842;28;19923;-55
2023/03/06 05:39:19;;;;;;;;;;;;;;;4.22;57.61;94074.91;4211589;28;19928;-60
2023/03/06 05:41:21;;;;;;;;;;;;;;;4.18;57.07;94082.13;4206568;28;19974;-55
2023/03/06 05:43:22;;;;;;;;;;;;;;;4.14;57.87;94090.31;4205531;28;19920;-53
2023/03/06 05:45:24;;;;;;;;;;;;;;;4.14;57.17;94087.72;4200141;28;19967;-54
2023/03/06 05:47:26;;;;;;;;;;;;;;;4.21;57.65;94084.44;4208010;28;20290;-56
2023/03/06 05:49:30;;;;;;;;;;;;;;;4.23;57.75;94086.91;4190005;28;19925;-55
2023/03/06 05:51:32;;;;;;;;;;;;;;;4.09;57.14;94091.53;4195751;28;20354;-58
2023/03/06 05:53:33;;;;;;;;;;;;;;;4.04;57.35;94101.50;4187725;28;20456;-57
2023/03/06 05:55:35;;;;;;;;;;;;;;;3.98;58.07;94094.25;4180525;28;19971;-53
2023/03/06 05:57:37;;;;;;;;;;;;;;;4.07;58.23;94100.41;4193453;28;20392;-55
2023/03/06 05:59:38;;;;;;;;;;;;;;;4.15;58.07;94104.91;4192501;28;19925;-54
2023/03/06 06:01:40;;;;;;;;;;;;;;;4.29;57.27;94109.72;4187489;28;19925;-54
2023/03/06 06:03:41;;;;;;;;;;;;;;;4.41;56.61;94105.19;4205446;28;19942;-55
2023/03/06 06:05:43;;;;;;;;;;;;;;;4.49;56.61;94107.94;4187013;28;19927;-55
2023/03/06 06:07:44;;;;;;;;;;;;;;;4.57;57.11;94109.84;4212439;28;19978;-55
2023/03/06 06:09:46;;;;;;;;;;;;;;;4.64;56.58;94108.34;4213225;28;19933;-57
2023/03/06 06:11:51;;;;;;;;;;;;;;;4.68;55.81;94115.72;4210153;28;20387;-53
2023/03/06 06:13:53;;;;;;;;;;;;;;;4.70;56.17;94115.59;4178870;28;19970;-56
2023/03/06 06:15:54;;;;;;;;;;;;;;;4.78;56.08;94118.31;4180516;28;20301;-57
2023/03/06 06:17:56;;;;;;;;;;;;;;;4.83;56.19;94110.09;4195285;28;19927;-58
2023/03/06 06:19:57;;;;;;;;;;;;;;;4.90;56.21;94112.03;4197122;28;19924;-54
2023/03/06 06:22:01;;;;;;;;;;;;;;;4.99;55.38;94119.91;4184459;28;19921;-55
2023/03/06 06:24:03;;;;;;;;;;;;;;;5.06;55.52;94116.63;4196057;28;20416;-55
2023/03/06 06:26:05;;;;;;;;;;;;;;;5.16;54.46;94121.78;4197015;28;19974;-55
2023/03/06 06:28:06;;;;;;;;;;;;;;;5.17;54.72;94120.84;4184043;28;19927;-54
2023/03/06 06:30:09;;;;;;;;;;;;;;;5.24;56.29;94121.91;4196305;28;19931;-55
2023/03/06 06:32:10;;;;;;;;;;;;;;;5.27;54.38;94129.44;4186168;28;19963;-57
2023/03/06 06:34:12;;;;;;;;;;;;;;;5.30;54.39;94129.13;4179449;28;19955;-55
2023/03/06 06:36:18;;;;;;;;;;;;;;;5.36;54.35;94119.16;4182901;28;19975;-56
2023/03/06 06:38:20;;;;;;;;;;;;;;;5.41;54.06;94111.75;4196948;28;19924;-55
2023/03/06 06:40:23;;;;;;;;;;;;;;;5.50;53.78;94123.88;4197339;28;19947;-58
2023/03/06 06:42:24;;;;;;;;;;;;;;;5.41;52.99;94124.75;4197165;28;19993;-55
2023/03/06 06:44:37;;;;;;;;;;;;;;;5.15;53.54;94125.34;4187495;28;19924;-55
2023/03/06 06:46:39;;;;;;;;;;;;;;;4.88;54.64;94133.84;4197062;28;19920;-54
2023/03/06 06:49:01;;;;;;;;;;;;;;;4.94;54.93;94138.50;4197941;28;19920;-52
2023/03/06 06:51:03;;;;;;;;;;;;;;;5.12;54.42;94134.25;4197546;28;19920;-58
2023/03/06 06:53:05;;;;;;;;;;;;;;;5.20;54.06;94133.53;4189789;28;19921;-56
2023/03/06 06:55:06;;;;;;;;;;;;;;;5.33;54.04;94139.25;4209244;28;19939;-53
2023/03/06 06:57:09;;;;;;;;;;;;;;;5.26;53.65;94127.78;4210465;28;19949;-57
2023/03/06 06:59:10;;;;;;;;;;;;;;;5.15;53.86;94143.53;4207411;28;20355;-59
2023/03/06 07:01:17;;;;;;;;;;;;;;;5.12;54.47;94146.41;4205960;28;19920;-59
2023/03/06 07:03:19;;;;;;;;;;;;;;;5.22;53.98;94142.00;4203414;28;19919;-54
2023/03/06 07:05:20;;;;;;;;;;;;;;;5.38;53.40;94143.19;4197133;28;19920;-51
2023/03/06 07:07:22;;;;;;;;;;;;;;;5.57;53.94;94135.38;4208762;28;20007;-54
2023/03/06 07:09:26;;;;;;;;;;;;;;;5.70;53.23;94138.44;4210190;28;19999;-54
2023/03/06 07:11:28;;;;;;;;;;;;;;;5.84;53.14;94129.34;4211491;28;19969;-55
2023/03/06 07:13:29;;;;;;;;;;;;;;;5.94;52.44;94143.16;4205288;28;19928;-52
2023/03/06 07:15:31;;;;;;;;;;;;;;;6.06;51.52;94133.38;4211601;28;20342;-55
2023/03/06 07:17:33;;;;;;;;;;;;;;;6.07;51.97;94129.81;4201629;28;20350;-56
2023/03/06 07:19:35;;;;;;;;;;;;;;;6.11;51.77;94133.78;4206923;28;19942;-55
2023/03/06 07:21:39;;;;;;;;;;;;;;;6.03;51.95;94143.25;4206217;28;19920;-56
2023/03/06 07:23:40;;;;;;;;;;;;;;;5.95;51.80;94138.78;4195659;28;20394;-58
2023/03/06 07:25:42;;;;;;;;;;;;;;;5.92;51.43;94137.25;4195930;28;19921;-58
2023/03/06 07:27:43;;;;;;;;;;;;;;;5.36;52.40;94142.53;4207902;28;19991;-57
2023/03/06 07:29:53;;;;;;;;;;;;;;;5.42;52.68;94142.78;4186416;28;19942;-54
2023/03/06 07:31:55;;;;;;;;;;;;;;;5.58;52.68;94139.59;4205448;28;19927;-61
2023/03/06 07:33:56;;;;;;;;;;;;;;;5.70;52.24;94140.22;4205642;28;19966;-55
2023/03/06 07:35:58;;;;;;;;;;;;;;;5.63;51.88;94150.34;4211844;28;19923;-57
2023/03/06 07:38:00;;;;;;;;;;;;;;;5.62;51.61;94147.91;4211044;28;19943;-58
2023/03/06 07:40:03;;;;;;;;;;;;;;;5.05;52.71;94150.50;4211412;28;19981;-56
2023/03/06 07:42:06;;;;;;;;;;;;;;;5.18;52.60;94155.41;4200989;28;19951;-57
2023/03/06 07:44:07;;;;;;;;;;;;;;;5.24;53.12;94155.66;4210342;28;19966;-55
2023/03/06 07:46:09;;;;;;;;;;;;;;;5.48;52.75;94156.97;4207047;28;20351;-58
2023/03/06 07:48:12;;;;;;;;;;;;;;;5.74;52.24;94155.41;4196106;28;20363;-57
2023/03/06 07:50:13;;;;;;;;;;;;;;;6.03;51.37;94149.28;4182607;28;19921;-58
2023/03/06 07:52:15;;;;;;;;;;;;;;;6.29;50.39;94148.59;4192996;28;19921;-56
2023/03/06 07:54:17;;;;;;;;;;;;;;;6.53;50.32;94146.22;4204938;28;20290;-54
2023/03/06 07:56:18;;;;;;;;;;;;;;;6.75;49.85;94150.19;4194276;28;19931;-56
2023/03/06 07:58:20;;;;;;;;;;;;;;;6.91;49.76;94151.28;4203309;28;19935;-54
2023/03/06 08:00:22;;;;;;;;;;;;;;;7.08;49.24;94152.25;4201586;28;19927;-54
2023/03/06 08:02:23;;;;;;;;;;;;;;;7.10;48.91;94152.91;4205107;28;20028;-56
2023/03/06 08:04:25;;;;;;;;;;;;;;;7.18;48.39;94147.75;4206579;28;19970;-51
2023/03/06 08:06:29;;;;;;;;;;;;;;;6.95;48.79;94156.03;4194612;28;19982;-58
2023/03/06 08:08:32;;;;;;;;;;;;;;;6.10;50.38;94147.72;4203662;28;19927;-55
2023/03/06 08:10:33;;;;;;;;;;;;;;;5.94;50.94;94150.97;4198348;28;19927;-54
2023/03/06 08:12:35;;;;;;;;;;;;;;;5.93;51.06;94151.06;4206121;28;20374;-55
2023/03/06 08:14:36;;;;;;;;;;;;;;;5.92;51.01;94152.03;4200082;28;19943;-56
2023/03/06 08:16:38;;;;;;;;;;;;;;;5.97;51.47;94146.44;4203118;28;19928;-55
2023/03/06 08:18:39;;;;;;;;;;;;;;;6.17;51.99;94147.13;4205429;28;19919;-56
2023/03/06 08:20:41;;;;;;;;;;;;;;;6.52;51.34;94149.81;4206750;28;20419;-56
2023/03/06 08:22:42;;;;;;;;;;;;;;;6.67;49.72;94150.09;4194498;28;19943;-59
2023/03/06 08:24:44;;;;;;;;;;;;;;;6.83;49.41;94144.22;4197978;28;19920;-54
2023/03/06 08:26:46;;;;;;;;;;;;;;;6.95;49.25;94139.59;4202778;28;19920;-57
2023/03/06 08:28:47;;;;;;;;;;;;;;;7.03;48.93;94138.84;4196823;28;19920;-51
2023/03/06 08:30:49;;;;;;;;;;;;;;;7.21;49.05;94141.44;4213752;28;19977;-54
2023/03/06 08:32:50;;;;;;;;;;;;;;;7.35;48.92;94141.66;4199294;28;19920;-60
2023/03/06 08:34:52;;;;;;;;;;;;;;;7.38;48.03;94132.75;4194836;28;19927;-58
2023/03/06 08:36:53;;;;;;;;;;;;;;;7.30;48.08;94138.72;4190523;28;19974;-57
2023/03/06 08:38:55;;;;;;;;;;;;;;;7.13;48.08;94140.38;4187451;28;19970;-55
2023/03/06 08:40:57;;;;;;;;;;;;;;;7.16;48.46;94150.50;4197569;28;19974;-59
2023/03/06 08:42:58;;;;;;;;;;;;;;;7.13;48.46;94153.41;4194472;28;19943;-57
2023/03/06 08:45:00;;;;;;;;;;;;;;;6.95;48.55;94145.63;4191223;28;19920;-55
2023/03/06 08:47:01;;;;;;;;;;;;;;;7.15;48.80;94145.44;4199141;28;20395;-55
2023/03/06 08:49:03;;;;;;;;;;;;;;;7.27;48.36;94149.47;4198326;28;19993;-56
2023/03/06 08:51:04;;;;;;;;;;;;;;;7.41;48.10;94136.84;4192874;28;19952;-55
2023/03/06 08:53:06;;;;;;;;;;;;;;;7.68;48.22;94143.66;4197205;28;19920;-57
2023/03/06 08:55:08;;;;;;;;;;;;;;;7.95;47.03;94140.03;4206849;28;19920;-57
2023/03/06 08:57:09;;;;;;;;;;;;;;;8.16;47.14;94137.03;4214989;28;20026;-57
2023/03/06 08:59:12;;;;;;;;;;;;;;;8.44;46.75;94121.97;4197532;28;19920;-54
2023/03/06 09:01:14;;;;;;;;;;;;;;;8.13;45.78;94129.50;4196165;28;19920;-55
2023/03/06 09:03:15;;;;;;;;;;;;;;;8.17;46.80;94128.22;4187594;28;19932;-57
2023/03/06 09:05:17;;;;;;;;;;;;;;;8.31;46.34;94125.00;4194806;28;19963;-57
2023/03/06 09:07:18;;;;;;;;;;;;;;;8.32;45.65;94126.63;4187392;28;19927;-55
2023/03/06 09:09:20;;;;;;;;;;;;;;;8.38;46.21;94131.22;4214013;28;19963;-55
2023/03/06 09:11:22;;;;;;;;;;;;;;;8.53;45.88;94126.22;4213875;28;19924;-54
2023/03/06 09:13:23;;;;;;;;;;;;;;;8.66;46.08;94127.56;4209732;28;20366;-56
2023/03/06 09:15:25;;;;;;;;;;;;;;;8.42;45.81;94129.13;4214861;28;19920;-55
2023/03/06 09:17:28;;;;;;;;;;;;;;;8.37;46.30;94128.78;4205805;28;19924;-56
2023/03/06 09:19:30;;;;;;;;;;;;;;;8.59;45.70;94125.56;4208561;28;19999;-56
2023/03/06 09:21:31;;;;;;;;;;;;;;;8.90;45.27;94127.56;4211670;28;19923;-58
2023/03/06 09:23:33;;;;;;;;;;;;;;;9.11;44.59;94126.28;4201694;28;19978;-59
2023/03/06 09:25:35;;;;;;;;;;;;;;;9.34;44.80;94122.00;4214775;28;19959;-55
2023/03/06 09:27:36;;;;;;;;;;;;;;;9.47;44.60;94118.06;4202902;28;19927;-57
2023/03/06 09:29:38;;;;;;;;;;;;;;;9.67;44.08;94127.16;4183015;28;20374;-56
2023/03/06 09:31:39;;;;;;;;;;;;;;;9.68;43.15;94112.28;4185645;28;19928;-59
2023/03/06 09:33:41;;;;;;;;;;;;;;;9.80;43.68;94113.56;4188564;28;19921;-58
2023/03/06 09:35:52;;;;;;;;;;;;;;;9.87;43.03;94111.09;4181541;28;19960;-50
2023/03/06 09:37:54;;;;;;;;;;;;;;;10.08;43.06;94119.19;4199548;28;19971;-58
2023/03/06 09:39:56;;;;;;;;;;;;;;;10.26;43.18;94113.72;4181941;28;19947;-58
2023/03/06 09:41:58;;;;;;;;;;;;;;;10.29;42.60;94116.00;4182197;28;20019;-56
2023/03/06 09:44:03;;;;;;;;;;;;;;;10.39;42.65;94119.25;4192263;28;20084;-56
2023/03/06 09:46:31;;;;;;;;;;;;;;;10.55;42.23;94112.28;4196135;28;20011;-58
2023/03/06 09:48:39;;;;;;;;;;;;;;;10.68;41.82;94103.84;4183106;28;20608;-55
2023/03/06 09:50:45;;;;;;;;;;;;;;;10.27;42.22;94102.25;4183294;28;19970;-56
2023/03/06 09:53:02;;;;;;;;;;;;;;;10.12;42.53;94094.31;4191684;28;20042;-54
2023/03/06 09:55:03;;;;;;;;;;;;;;;9.89;42.84;94103.88;4184858;28;19921;-53
2023/03/06 09:57:07;;;;;;;;;;;;;;;9.79;43.64;94098.88;4208682;28;20007;-58
2023/03/06 09:59:12;;;;;;;;;;;;;;;10.12;42.95;94085.63;4207659;28;19924;-52
2023/03/06 10:01:16;;;;;;;;;;;;;;;10.44;42.36;94087.28;4186413;28;19954;-57
2023/03/06 10:03:28;;;;;;;;;;;;;;;10.69;41.89;94090.56;4186732;28;19920;-56
2023/03/06 10:05:40;;;;;;;;;;;;;;;10.79;41.89;94085.91;4195041;28;20475;-53
2023/03/06 10:07:49;;;;;;;;;;;;;;;10.61;41.99;94088.81;4196008;28;19931;-55
2023/03/06 10:09:53;;;;;;;;;;;;;;;10.88;42.04;94088.47;4187209;28;19921;-56
2023/03/06 10:11:55;;;;;;;;;;;;;;;11.28;41.52;94085.50;4186373;28;20002;-55
2023/03/06 10:14:20;;;;;;;;;;;;;;;11.12;40.70;94082.19;4198911;28;19924;-55
2023/03/06 10:16:24;;;;;;;;;;;;;;;10.66;41.31;94086.47;4146906;28;19967;-57
2023/03/06 10:18:26;;;;;;;;;;;;;;;10.19;42.49;94083.97;4195681;28;19970;-55
2023/03/06 10:20:40;;;;;;;;;;;;;;;10.10;42.91;94079.75;4197884;28;20309;-54
2023/03/06 10:22:45;;;;;;;;;;;;;;;10.18;42.83;94083.16;4193176;28;19920;-58
2023/03/06 10:25:10;;;;;;;;;;;;;;;10.44;42.71;94087.28;4193875;28;19950;-53
2023/03/06 10:27:15;;;;;;;;;;;;;;;10.83;42.15;94086.38;4182764;28;19972;-55
2023/03/06 10:29:29;;;;;;;;;;;;;;;10.89;41.22;94075.19;4181202;28;20018;-51
2023/03/06 10:31:31;;;;;;;;;;;;;;;11.01;41.12;94078.19;4183847;28;19927;-54
2023/03/06 10:33:38;;;;;;;;;;;;;;;11.32;41.30;94074.66;4195286;28;19920;-55
2023/03/06 10:35:49;;;;;;;;;;;;;;;11.31;40.75;94073.81;4187094;28;19979;-55
2023/03/06 10:37:56;;;;;;;;;;;;;;;11.48;40.93;94056.13;4183674;28;19970;-55
2023/03/06 10:40:02;;;;;;;;;;;;;;;11.96;40.48;94061.03;4198270;28;19920;-54
2023/03/06 10:42:04;;;;;;;;;;;;;;;12.23;39.85;94057.72;4196606;28;19924;-56
2023/03/06 10:44:07;;;;;;;;;;;;;;;12.34;38.91;94060.88;4196795;28;20535;-56
2023/03/06 10:46:09;;;;;;;;;;;;;;;12.38;38.97;94054.25;4182285;28;20304;-59